createdAt,value
2019-06-07T00:00:02.810Z,1004.94
2019-06-07T00:01:02.011Z,1004.97
2019-06-07T00:02:02.083Z,1004.96
2019-06-07T00:03:02.014Z,1004.94
2019-06-07T00:04:02.069Z,1004.96
2019-06-07T00:05:02.042Z,1004.93
2019-06-07T00:06:02.003Z,1004.87
2019-06-07T00:07:02.120Z,1004.83
2019-06-07T00:08:07.520Z,1004.83
2019-06-07T00:09:02.072Z,1004.89
2019-06-07T00:10:02.005Z,1004.86
2019-06-07T00:11:02.005Z,1004.88
2019-06-07T00:12:02.040Z,1004.83
2019-06-07T00:13:02.106Z,1004.89
2019-06-07T00:14:02.091Z,1004.89
2019-06-07T00:15:02.062Z,1004.86
2019-06-07T00:16:02.063Z,1004.83
2019-06-07T00:17:01.986Z,1004.85
2019-06-07T00:18:02.028Z,1004.84
2019-06-07T00:19:02.088Z,1004.87
2019-06-07T00:20:02.112Z,1004.81
2019-06-07T00:21:02.110Z,1004.85
2019-06-07T00:22:30.009Z,1004.88
2019-06-07T00:23:02.054Z,1004.90
2019-06-07T00:24:02.041Z,1004.88
2019-06-07T00:25:02.037Z,1004.91
2019-06-07T00:26:02.105Z,1004.90
2019-06-07T00:27:02.125Z,1004.86
2019-06-07T00:28:02.119Z,1004.84
2019-06-07T00:29:02.027Z,1004.83
2019-06-07T00:30:29.820Z,1004.84
2019-06-07T00:31:02.105Z,1004.80
2019-06-07T00:32:02.038Z,1004.76
2019-06-07T00:33:02.030Z,1004.76
2019-06-07T00:34:02.087Z,1004.72
2019-06-07T00:35:02.085Z,1004.68
2019-06-07T00:36:02.044Z,1004.64
2019-06-07T00:37:02.130Z,1004.65
2019-06-07T00:38:02.001Z,1004.63
2019-06-07T00:39:02.086Z,1004.63
2019-06-07T00:40:13.950Z,1004.65
2019-06-07T00:41:02.020Z,1004.67
2019-06-07T00:42:02.146Z,1004.65
2019-06-07T00:43:02.035Z,1004.67
2019-06-07T00:44:02.109Z,1004.68
2019-06-07T00:45:02.143Z,1004.68
2019-06-07T00:46:02.112Z,1004.67
2019-06-07T00:47:02.044Z,1004.67
2019-06-07T00:48:02.074Z,1004.68
2019-06-07T00:49:02.100Z,1004.67
2019-06-07T00:50:02.008Z,1004.71
2019-06-07T00:51:02.118Z,1004.69
2019-06-07T00:52:02.061Z,1004.73
2019-06-07T00:53:27.542Z,1004.72
2019-06-07T00:54:02.105Z,1004.68
2019-06-07T00:55:02.134Z,1004.71
2019-06-07T00:56:01.988Z,1004.70
2019-06-07T00:57:02.005Z,1004.66
2019-06-07T00:58:02.500Z,1004.64
2019-06-07T00:59:11.372Z,1004.66
2019-06-07T01:00:02.062Z,1004.61
2019-06-07T01:01:02.012Z,1004.62
2019-06-07T01:02:02.123Z,1004.63
2019-06-07T01:03:02.048Z,1004.67
2019-06-07T01:04:02.044Z,1004.68
2019-06-07T01:05:02.114Z,1004.68
2019-06-07T01:06:02.118Z,1004.71
2019-06-07T01:07:02.049Z,1004.72
2019-06-07T01:08:02.117Z,1004.71
2019-06-07T01:09:02.061Z,1004.71
2019-06-07T01:10:02.149Z,1004.72
2019-06-07T01:11:02.052Z,1004.72
2019-06-07T01:12:02.269Z,1004.69
2019-06-07T01:13:02.150Z,1004.69
2019-06-07T01:14:02.164Z,1004.67
2019-06-07T01:15:02.161Z,1004.66
2019-06-07T01:16:02.135Z,1004.61
2019-06-07T01:17:22.493Z,1004.61
2019-06-07T01:19:02.075Z,1004.65
2019-06-07T01:20:02.072Z,1004.63
2019-06-07T01:21:02.160Z,1004.64
2019-06-07T01:22:02.225Z,1004.63
2019-06-07T01:23:02.060Z,1004.63
2019-06-07T01:24:11.979Z,1004.60
2019-06-07T01:25:02.128Z,1004.61
2019-06-07T01:26:02.130Z,1004.62
2019-06-07T01:27:02.129Z,1004.58
2019-06-07T01:28:02.068Z,1004.59
2019-06-07T01:29:02.133Z,1004.61
2019-06-07T01:30:02.137Z,1004.62
2019-06-07T01:31:02.133Z,1004.56
2019-06-07T01:32:02.139Z,1004.54
2019-06-07T01:33:02.169Z,1004.56
2019-06-07T01:34:02.165Z,1004.55
2019-06-07T01:35:02.150Z,1004.53
2019-06-07T01:36:02.107Z,1004.50
2019-06-07T01:37:02.082Z,1004.49
2019-06-07T01:38:02.130Z,1004.46
2019-06-07T01:39:02.151Z,1004.47
2019-06-07T01:40:02.091Z,1004.44
2019-06-07T01:41:02.157Z,1004.47
2019-06-07T01:42:02.264Z,1004.44
2019-06-07T01:43:02.149Z,1004.47
2019-06-07T01:44:02.191Z,1004.42
2019-06-07T01:45:02.104Z,1004.39
2019-06-07T01:46:02.158Z,1004.35
2019-06-07T01:47:02.077Z,1004.39
2019-06-07T01:48:02.147Z,1004.35
2019-06-07T01:49:02.083Z,1004.34
2019-06-07T01:50:02.112Z,1004.33
2019-06-07T01:51:02.079Z,1004.31
2019-06-07T01:52:02.092Z,1004.30
2019-06-07T01:53:02.181Z,1004.28
2019-06-07T01:54:48.746Z,1004.28
2019-06-07T01:55:02.125Z,1004.24
2019-06-07T01:56:02.171Z,1004.26
2019-06-07T01:57:02.117Z,1004.25
2019-06-07T01:58:02.169Z,1004.28
2019-06-07T01:59:02.173Z,1004.30
2019-06-07T02:00:02.177Z,1004.28
2019-06-07T02:01:02.167Z,1004.27
2019-06-07T02:02:02.180Z,1004.29
2019-06-07T02:03:02.094Z,1004.31
2019-06-07T02:04:02.556Z,1004.33
2019-06-07T02:05:02.216Z,1004.29
2019-06-07T02:06:02.128Z,1004.33
2019-06-07T02:07:02.139Z,1004.31
2019-06-07T02:08:02.200Z,1004.31
2019-06-07T02:09:02.198Z,1004.38
2019-06-07T02:10:02.122Z,1004.35
2019-06-07T02:11:02.209Z,1004.37
2019-06-07T02:12:02.189Z,1004.35
2019-06-07T02:13:02.125Z,1004.37
2019-06-07T02:14:02.106Z,1004.37
2019-06-07T02:15:02.466Z,1004.37
2019-06-07T02:16:02.189Z,1004.41
2019-06-07T02:17:02.112Z,1004.41
2019-06-07T02:18:02.258Z,1004.40
2019-06-07T02:19:03.732Z,1004.40
2019-06-07T02:20:02.177Z,1004.42
2019-06-07T02:21:02.191Z,1004.35
2019-06-07T02:22:02.209Z,1004.38
2019-06-07T02:23:02.122Z,1004.37
2019-06-07T02:24:02.186Z,1004.35
2019-06-07T02:25:36.884Z,1004.38
2019-06-07T02:26:02.116Z,1004.39
2019-06-07T02:27:02.124Z,1004.44
2019-06-07T02:28:26.449Z,1004.43
2019-06-07T02:29:02.187Z,1004.45
2019-06-07T02:30:35.219Z,1004.46
2019-06-07T02:31:02.131Z,1004.42
2019-06-07T02:32:02.218Z,1004.39
2019-06-07T02:33:02.221Z,1004.39
2019-06-07T02:34:02.198Z,1004.33
2019-06-07T02:35:02.243Z,1004.35
2019-06-07T02:36:02.140Z,1004.32
2019-06-07T02:37:02.200Z,1004.33
2019-06-07T02:38:02.212Z,1004.27
2019-06-07T02:39:02.205Z,1004.29
2019-06-07T02:40:02.142Z,1004.24
2019-06-07T02:41:02.164Z,1004.23
2019-06-07T02:42:02.263Z,1004.25
2019-06-07T02:43:02.127Z,1004.23
2019-06-07T02:44:02.213Z,1004.25
2019-06-07T02:45:02.166Z,1004.28
2019-06-07T02:46:23.962Z,1004.28
2019-06-07T02:47:02.217Z,1004.27
2019-06-07T02:48:02.145Z,1004.25
2019-06-07T02:49:02.147Z,1004.26
2019-06-07T02:50:02.148Z,1004.24
2019-06-07T02:51:02.214Z,1004.24
2019-06-07T02:52:02.158Z,1004.26
2019-06-07T02:53:02.203Z,1004.25
2019-06-07T02:54:02.130Z,1004.23
2019-06-07T02:55:02.160Z,1004.21
2019-06-07T02:56:35.421Z,1004.20
2019-06-07T02:57:02.106Z,1004.22
2019-06-07T02:58:02.134Z,1004.23
2019-06-07T02:59:02.109Z,1004.21
2019-06-07T03:00:27.139Z,1004.18
2019-06-07T03:01:08.584Z,1004.23
2019-06-07T03:02:02.125Z,1004.23
2019-06-07T03:03:02.146Z,1004.22
2019-06-07T03:04:02.225Z,1004.22
2019-06-07T03:05:02.208Z,1004.19
2019-06-07T03:06:02.141Z,1004.23
2019-06-07T03:07:02.141Z,1004.24
2019-06-07T03:08:02.210Z,1004.24
2019-06-07T03:09:02.207Z,1004.25
2019-06-07T03:10:02.152Z,1004.25
2019-06-07T03:11:02.246Z,1004.29
2019-06-07T03:12:02.250Z,1004.27
2019-06-07T03:13:02.179Z,1004.32
2019-06-07T03:14:02.159Z,1004.35
2019-06-07T03:15:02.231Z,1004.30
2019-06-07T03:16:02.205Z,1004.38
2019-06-07T03:17:02.169Z,1004.38
2019-06-07T03:18:02.157Z,1004.41
2019-06-07T03:19:02.139Z,1004.41
2019-06-07T03:20:02.327Z,1004.43
2019-06-07T03:21:05.418Z,1004.37
2019-06-07T03:22:02.161Z,1004.38
2019-06-07T03:23:02.147Z,1004.38
2019-06-07T03:24:02.306Z,1004.38
2019-06-07T03:25:02.180Z,1004.35
2019-06-07T03:26:02.248Z,1004.33
2019-06-07T03:28:02.240Z,1004.33
2019-06-07T03:29:02.248Z,1004.36
2019-06-07T03:30:34.963Z,1004.38
2019-06-07T03:31:03.282Z,1004.38
2019-06-07T03:32:02.188Z,1004.35
2019-06-07T03:33:02.253Z,1004.37
2019-06-07T03:34:02.283Z,1004.42
2019-06-07T03:35:02.241Z,1004.39
2019-06-07T03:36:22.824Z,1004.42
2019-06-07T03:37:02.247Z,1004.43
2019-06-07T03:38:02.353Z,1004.36
2019-06-07T03:39:02.172Z,1004.38
2019-06-07T03:40:02.244Z,1004.41
2019-06-07T03:41:02.200Z,1004.41
2019-06-07T03:42:06.597Z,1004.39
2019-06-07T03:43:02.235Z,1004.37
2019-06-07T03:44:02.246Z,1004.38
2019-06-07T03:45:02.197Z,1004.34
2019-06-07T03:46:02.235Z,1004.34
2019-06-07T03:47:02.163Z,1004.31
2019-06-07T03:48:02.237Z,1004.27
2019-06-07T03:49:02.517Z,1004.29
2019-06-07T03:50:02.153Z,1004.29
2019-06-07T03:51:04.891Z,1004.34
2019-06-07T03:52:02.240Z,1004.41
2019-06-07T03:53:02.291Z,1004.42
2019-06-07T03:54:02.244Z,1004.44
2019-06-07T03:55:02.165Z,1004.48
2019-06-07T03:56:02.291Z,1004.46
2019-06-07T03:57:02.169Z,1004.45
2019-06-07T03:59:02.171Z,1004.38
2019-06-07T04:00:02.249Z,1004.35
2019-06-07T04:01:02.313Z,1004.36
2019-06-07T04:02:02.181Z,1004.36
2019-06-07T04:03:02.250Z,1004.38
2019-06-07T04:04:02.242Z,1004.37
2019-06-07T04:05:02.181Z,1004.39
2019-06-07T04:06:02.156Z,1004.40
2019-06-07T04:07:02.159Z,1004.38
2019-06-07T04:08:02.197Z,1004.40
2019-06-07T04:09:02.220Z,1004.43
2019-06-07T04:10:02.253Z,1004.43
2019-06-07T04:11:02.268Z,1004.47
2019-06-07T04:12:02.172Z,1004.41
2019-06-07T04:13:02.271Z,1004.38
2019-06-07T04:14:02.263Z,1004.38
2019-06-07T04:15:02.201Z,1004.36
2019-06-07T04:16:02.209Z,1004.34
2019-06-07T04:17:02.276Z,1004.33
2019-06-07T04:18:04.073Z,1004.36
2019-06-07T04:19:02.255Z,1004.42
2019-06-07T04:20:02.391Z,1004.42
2019-06-07T04:21:02.233Z,1004.42
2019-06-07T04:22:02.271Z,1004.43
2019-06-07T04:23:02.187Z,1004.47
2019-06-07T04:24:02.201Z,1004.48
2019-06-07T04:25:02.204Z,1004.46
2019-06-07T04:26:02.204Z,1004.45
2019-06-07T04:27:02.263Z,1004.44
2019-06-07T04:28:02.219Z,1004.47
2019-06-07T04:29:32.271Z,1004.45
2019-06-07T04:30:07.867Z,1004.40
2019-06-07T04:31:02.326Z,1004.42
2019-06-07T04:32:04.341Z,1004.43
2019-06-07T04:33:02.204Z,1004.40
2019-06-07T04:34:02.201Z,1004.37
2019-06-07T04:35:02.271Z,1004.41
2019-06-07T04:36:02.204Z,1004.41
2019-06-07T04:37:02.282Z,1004.39
2019-06-07T04:38:02.274Z,1004.43
2019-06-07T04:39:02.211Z,1004.46
2019-06-07T04:40:02.200Z,1004.43
2019-06-07T04:41:02.210Z,1004.43
2019-06-07T04:42:02.276Z,1004.45
2019-06-07T04:43:02.210Z,1004.46
2019-06-07T04:44:02.281Z,1004.46
2019-06-07T04:45:02.213Z,1004.41
2019-06-07T04:46:02.282Z,1004.42
2019-06-07T04:47:02.212Z,1004.47
2019-06-07T04:48:02.287Z,1004.46
2019-06-07T04:49:02.222Z,1004.45
2019-06-07T04:50:02.286Z,1004.42
2019-06-07T04:51:02.288Z,1004.40
2019-06-07T04:52:02.214Z,1004.38
2019-06-07T04:53:02.226Z,1004.31
2019-06-07T04:54:02.303Z,1004.31
2019-06-07T04:55:02.228Z,1004.25
2019-06-07T04:56:02.238Z,1004.25
2019-06-07T04:57:02.230Z,1004.22
2019-06-07T04:58:02.242Z,1004.24
2019-06-07T04:59:02.300Z,1004.21
2019-06-07T05:00:12.642Z,1004.27
2019-06-07T05:01:03.743Z,1004.26
2019-06-07T05:02:02.246Z,1004.30
2019-06-07T05:03:02.238Z,1004.32
2019-06-07T05:04:02.393Z,1004.31
2019-06-07T05:05:02.306Z,1004.33
2019-06-07T05:06:02.269Z,1004.30
2019-06-07T05:07:02.304Z,1004.31
2019-06-07T05:08:07.500Z,1004.30
2019-06-07T05:09:02.307Z,1004.31
2019-06-07T05:10:02.502Z,1004.30
2019-06-07T05:11:02.358Z,1004.26
2019-06-07T05:12:02.276Z,1004.31
2019-06-07T05:13:02.222Z,1004.32
2019-06-07T05:14:02.233Z,1004.32
2019-06-07T05:15:02.352Z,1004.29
2019-06-07T05:16:02.255Z,1004.26
2019-06-07T05:17:02.304Z,1004.20
2019-06-07T05:18:02.236Z,1004.15
2019-06-07T05:19:02.309Z,1004.15
2019-06-07T05:20:02.243Z,1004.13
2019-06-07T05:21:02.325Z,1004.15
2019-06-07T05:22:04.776Z,1004.14
2019-06-07T05:23:02.237Z,1004.09
2019-06-07T05:24:09.760Z,1004.13
2019-06-07T05:25:02.237Z,1004.12
2019-06-07T05:26:02.310Z,1004.11
2019-06-07T05:27:02.313Z,1004.10
2019-06-07T05:28:02.239Z,1004.06
2019-06-07T05:29:02.240Z,1004.03
2019-06-07T05:30:49.957Z,1004.03
2019-06-07T05:31:05.636Z,1004.01
2019-06-07T05:32:02.239Z,1004.02
2019-06-07T05:33:02.334Z,1004.02
2019-06-07T05:34:02.255Z,1004.05
2019-06-07T05:35:02.275Z,1004.04
2019-06-07T05:36:02.331Z,1004.08
2019-06-07T05:37:11.786Z,1004.06
2019-06-07T05:38:02.332Z,1004.08
2019-06-07T05:39:02.347Z,1004.09
2019-06-07T05:40:02.265Z,1004.13
2019-06-07T05:41:02.262Z,1004.15
2019-06-07T05:42:02.304Z,1004.16
2019-06-07T05:43:02.279Z,1004.16
2019-06-07T05:44:12.540Z,1004.11
2019-06-07T05:45:02.329Z,1004.13
2019-06-07T05:46:02.375Z,1004.12
2019-06-07T05:47:02.262Z,1004.15
2019-06-07T05:48:02.745Z,1004.15
2019-06-07T05:49:02.265Z,1004.12
2019-06-07T05:50:02.940Z,1004.14
2019-06-07T05:51:02.332Z,1004.15
2019-06-07T05:52:02.329Z,1004.14
2019-06-07T05:53:02.278Z,1004.12
2019-06-07T05:54:02.361Z,1004.10
2019-06-07T05:55:02.326Z,1004.08
2019-06-07T05:56:02.288Z,1004.07
2019-06-07T05:57:02.272Z,1004.05
2019-06-07T05:58:02.355Z,1004.08
2019-06-07T05:59:02.326Z,1004.05
2019-06-07T06:00:02.373Z,1004.06
2019-06-07T06:01:41.651Z,1004.09
2019-06-07T06:02:21.247Z,1004.12
2019-06-07T06:03:05.589Z,1004.10
2019-06-07T06:04:02.199Z,1004.15
2019-06-07T06:05:02.795Z,1004.14
2019-06-07T06:06:02.314Z,1004.12
2019-06-07T06:07:02.299Z,1004.14
2019-06-07T06:08:02.241Z,1004.16
2019-06-07T06:09:13.285Z,1004.16
2019-06-07T06:10:02.293Z,1004.12
2019-06-07T06:11:02.201Z,1004.10
2019-06-07T06:12:02.646Z,1004.13
2019-06-07T06:13:02.359Z,1004.11
2019-06-07T06:14:07.958Z,1004.13
2019-06-07T06:15:02.288Z,1004.14
2019-06-07T06:16:02.628Z,1004.14
2019-06-07T06:17:02.292Z,1004.10
2019-06-07T06:18:02.366Z,1004.11
2019-06-07T06:19:02.291Z,1004.07
2019-06-07T06:20:02.388Z,1004.10
2019-06-07T06:21:16.323Z,1004.04
2019-06-07T06:22:02.373Z,1004.06
2019-06-07T06:23:02.285Z,1004.04
2019-06-07T06:24:02.351Z,1004.00
2019-06-07T06:25:30.675Z,1003.93
2019-06-07T06:26:02.354Z,1003.99
2019-06-07T06:27:18.972Z,1003.98
2019-06-07T06:28:11.707Z,1003.97
2019-06-07T06:29:02.306Z,1003.92
2019-06-07T06:30:02.311Z,1003.94
2019-06-07T06:31:02.251Z,1003.92
2019-06-07T06:32:40.564Z,1003.96
2019-06-07T06:33:02.356Z,1003.96
2019-06-07T06:34:02.377Z,1003.91
2019-06-07T06:35:02.356Z,1003.94
2019-06-07T06:36:02.334Z,1003.90
2019-06-07T06:37:02.374Z,1003.93
2019-06-07T06:38:02.377Z,1003.92
2019-06-07T06:39:02.268Z,1003.92
2019-06-07T06:40:02.308Z,1003.93
2019-06-07T06:41:15.445Z,1003.95
2019-06-07T06:42:03.931Z,1003.95
2019-06-07T06:43:02.354Z,1003.95
2019-06-07T06:44:02.294Z,1003.94
2019-06-07T06:45:02.389Z,1003.98
2019-06-07T06:46:02.275Z,1003.96
2019-06-07T06:47:02.312Z,1003.92
2019-06-07T06:48:02.257Z,1003.96
2019-06-07T06:49:02.374Z,1003.93
2019-06-07T06:50:02.339Z,1003.91
2019-06-07T06:51:02.339Z,1003.84
2019-06-07T06:52:02.262Z,1003.80
2019-06-07T06:53:02.318Z,1003.77
2019-06-07T06:54:02.383Z,1003.84
2019-06-07T06:55:02.314Z,1003.81
2019-06-07T06:56:02.259Z,1003.79
2019-06-07T06:57:19.096Z,1003.77
2019-06-07T06:58:02.380Z,1003.74
2019-06-07T07:00:02.307Z,1003.77
2019-06-07T07:01:06.863Z,1003.74
2019-06-07T07:02:02.314Z,1003.73
2019-06-07T07:03:47.689Z,1003.74
2019-06-07T07:04:12.171Z,1003.79
2019-06-07T07:05:02.407Z,1003.79
2019-06-07T07:06:24.652Z,1003.78
2019-06-07T07:07:02.331Z,1003.71
2019-06-07T07:08:02.450Z,1003.73
2019-06-07T07:09:02.415Z,1003.72
2019-06-07T07:10:03.141Z,1003.70
2019-06-07T07:11:02.411Z,1003.70
2019-06-07T07:12:12.300Z,1003.71
2019-06-07T07:13:02.322Z,1003.72
2019-06-07T07:14:02.323Z,1003.74
2019-06-07T07:15:02.324Z,1003.67
2019-06-07T07:16:02.394Z,1003.68
2019-06-07T07:17:02.335Z,1003.67
2019-06-07T07:18:08.502Z,1003.63
2019-06-07T07:19:02.403Z,1003.62
2019-06-07T07:20:02.325Z,1003.64
2019-06-07T07:21:02.329Z,1003.62
2019-06-07T07:22:02.400Z,1003.59
2019-06-07T07:23:02.339Z,1003.60
2019-06-07T07:24:20.403Z,1003.63
2019-06-07T07:25:02.412Z,1003.63
2019-06-07T07:26:02.420Z,1003.69
2019-06-07T07:27:02.345Z,1003.70
2019-06-07T07:28:02.410Z,1003.70
2019-06-07T07:29:02.446Z,1003.71
2019-06-07T07:30:35.577Z,1003.67
2019-06-07T07:31:02.419Z,1003.70
2019-06-07T07:32:02.345Z,1003.71
2019-06-07T07:33:03.111Z,1003.69
2019-06-07T07:35:02.346Z,1003.65
2019-06-07T07:37:02.410Z,1003.55
2019-06-07T07:38:02.411Z,1003.55
2019-06-07T07:39:05.040Z,1003.51
2019-06-07T07:40:48.071Z,1003.48
2019-06-07T07:41:13.943Z,1003.48
2019-06-07T07:42:20.175Z,1003.45
2019-06-07T07:43:02.354Z,1003.45
2019-06-07T07:44:06.887Z,1003.42
2019-06-07T07:45:02.400Z,1003.43
2019-06-07T07:46:06.064Z,1003.39
2019-06-07T07:47:02.426Z,1003.40
2019-06-07T07:48:15.589Z,1003.42
2019-06-07T07:49:02.393Z,1003.46
2019-06-07T07:50:02.412Z,1003.43
2019-06-07T07:51:03.414Z,1003.43
2019-06-07T07:52:02.448Z,1003.47
2019-06-07T07:53:02.423Z,1003.38
2019-06-07T07:54:10.584Z,1003.33
2019-06-07T07:55:02.336Z,1003.27
2019-06-07T07:56:02.790Z,1003.26
2019-06-07T07:57:02.424Z,1003.27
2019-06-07T07:58:02.360Z,1003.25
2019-06-07T07:59:02.995Z,1003.23
2019-06-07T08:00:48.124Z,1003.25
2019-06-07T08:01:10.218Z,1003.27
2019-06-07T08:02:02.428Z,1003.24
2019-06-07T08:03:04.497Z,1003.21
2019-06-07T08:04:02.338Z,1003.19
2019-06-07T08:05:28.769Z,1003.19
2019-06-07T08:06:02.381Z,1003.16
2019-06-07T08:07:02.368Z,1003.16
2019-06-07T08:08:05.355Z,1003.12
2019-06-07T08:09:02.381Z,1003.12
2019-06-07T08:10:04.135Z,1003.04
2019-06-07T08:11:02.621Z,1003.09
2019-06-07T08:12:02.775Z,1003.06
2019-06-07T08:13:23.894Z,1003.01
2019-06-07T08:14:02.376Z,1003.03
2019-06-07T08:15:03.524Z,1003.05
2019-06-07T08:16:10.642Z,1003.03
2019-06-07T08:17:02.375Z,1003.01
2019-06-07T08:18:04.351Z,1003.01
2019-06-07T08:19:04.346Z,1002.98
2019-06-07T08:20:03.033Z,1002.94
2019-06-07T08:21:21.612Z,1002.91
2019-06-07T08:22:02.456Z,1002.87
2019-06-07T08:23:02.457Z,1002.86
2019-06-07T08:24:05.209Z,1002.85
2019-06-07T08:25:04.328Z,1002.83
2019-06-07T08:26:02.390Z,1002.82
2019-06-07T08:27:24.727Z,1002.81
2019-06-07T08:28:02.414Z,1002.73
2019-06-07T08:29:03.156Z,1002.84
2019-06-07T08:30:26.051Z,1002.84
2019-06-07T08:31:06.854Z,1002.81
2019-06-07T08:32:02.462Z,1002.86
2019-06-07T08:33:24.742Z,1002.73
2019-06-07T08:34:02.458Z,1002.77
2019-06-07T08:35:06.430Z,1002.78
2019-06-07T08:36:14.182Z,1002.72
2019-06-07T08:37:02.492Z,1002.68
2019-06-07T08:38:46.541Z,1002.66
2019-06-07T08:39:07.238Z,1002.69
2019-06-07T08:40:02.400Z,1002.67
2019-06-07T08:41:11.399Z,1002.63
2019-06-07T08:42:15.443Z,1002.64
2019-06-07T08:43:18.343Z,1002.62
2019-06-07T08:44:22.234Z,1002.60
2019-06-07T08:45:05.453Z,1002.63
2019-06-07T08:46:07.278Z,1002.59
2019-06-07T08:47:19.265Z,1002.54
2019-06-07T08:48:09.449Z,1002.56
2019-06-07T08:49:04.550Z,1002.52
2019-06-07T08:50:07.481Z,1002.57
2019-06-07T08:51:08.150Z,1002.56
2019-06-07T08:52:07.943Z,1002.55
2019-06-07T08:53:11.440Z,1002.53
2019-06-07T08:54:21.106Z,1002.53
2019-06-07T08:55:04.912Z,1002.53
2019-06-07T08:56:09.146Z,1002.48
2019-06-07T08:57:19.694Z,1002.47
2019-06-07T08:58:08.207Z,1002.49
2019-06-07T08:59:10.799Z,1002.50
2019-06-07T09:00:07.102Z,1002.45
2019-06-07T09:01:07.788Z,1002.47
2019-06-07T09:02:14.567Z,1002.42
2019-06-07T09:03:05.063Z,1002.38
2019-06-07T09:04:07.680Z,1002.40
2019-06-07T09:05:11.100Z,1002.44
2019-06-07T09:06:16.443Z,1002.40
2019-06-07T09:07:14.693Z,1002.39
2019-06-07T09:08:25.993Z,1002.36
2019-06-07T09:09:05.186Z,1002.31
2019-06-07T09:10:09.520Z,1002.29
2019-06-07T09:11:10.162Z,1002.27
2019-06-07T09:12:08.130Z,1002.23
2019-06-07T09:13:09.937Z,1002.21
2019-06-07T09:14:08.675Z,1002.14
2019-06-07T09:15:14.964Z,1002.16
2019-06-07T09:16:06.771Z,1002.12
2019-06-07T09:17:11.032Z,1002.13
2019-06-07T09:18:40.028Z,1002.10
2019-06-07T09:19:06.703Z,1002.11
2019-06-07T09:20:09.406Z,1002.09
2019-06-07T09:21:07.681Z,1002.12
2019-06-07T09:22:08.246Z,1002.09
2019-06-07T09:23:15.484Z,1002.08
2019-06-07T09:24:10.394Z,1002.10
2019-06-07T09:25:10.536Z,1002.04
2019-06-07T09:26:15.384Z,1002.01
2019-06-07T09:27:07.184Z,1002.00
2019-06-07T09:28:10.143Z,1001.98
2019-06-07T09:29:07.065Z,1001.96
2019-06-07T09:30:08.830Z,1001.97
2019-06-07T09:31:06.943Z,1001.97
2019-06-07T09:32:05.950Z,1001.98
2019-06-07T09:33:05.739Z,1001.95
2019-06-07T09:34:07.909Z,1001.91
2019-06-07T09:35:08.119Z,1001.94
2019-06-07T09:36:09.205Z,1001.94
2019-06-07T09:37:13.041Z,1001.95
2019-06-07T09:38:11.048Z,1001.92
2019-06-07T09:39:07.379Z,1001.89
2019-06-07T09:40:15.423Z,1001.86
2019-06-07T09:41:05.631Z,1001.88
2019-06-07T09:42:08.386Z,1001.87
2019-06-07T09:43:47.943Z,1001.85
2019-06-07T09:44:20.419Z,1001.82
2019-06-07T09:45:06.545Z,1001.84
2019-06-07T09:46:09.693Z,1001.81
2019-06-07T09:47:22.219Z,1001.75
2019-06-07T09:48:11.605Z,1001.72
2019-06-07T09:49:18.739Z,1001.67
2019-06-07T09:50:05.967Z,1001.69
2019-06-07T09:51:09.737Z,1001.68
2019-06-07T09:52:07.315Z,1001.68
2019-06-07T09:53:10.468Z,1001.69
2019-06-07T09:54:06.925Z,1001.69
2019-06-07T09:55:09.103Z,1001.67
2019-06-07T09:56:05.787Z,1001.68
2019-06-07T09:57:05.326Z,1001.63
2019-06-07T09:58:47.802Z,1001.63
2019-06-07T09:59:03.713Z,1001.68
2019-06-07T10:00:33.558Z,1001.71
2019-06-07T10:01:06.183Z,1001.63
2019-06-07T10:02:03.632Z,1001.64
2019-06-07T10:03:15.842Z,1001.54
2019-06-07T10:04:08.246Z,1001.59
2019-06-07T10:05:05.192Z,1001.60
2019-06-07T10:06:07.635Z,1001.56
2019-06-07T10:07:10.584Z,1001.58
2019-06-07T10:08:22.553Z,1001.56
2019-06-07T10:11:02.631Z,1001.53
2019-06-07T10:12:02.545Z,1001.53
2019-06-07T10:13:04.073Z,1001.57
2019-06-07T10:14:02.504Z,1001.50
2019-06-07T10:15:02.951Z,1001.46
2019-06-07T10:16:02.758Z,1001.48
2019-06-07T10:17:03.176Z,1001.45
2019-06-07T10:18:02.843Z,1001.46
2019-06-07T10:19:03.690Z,1001.39
2019-06-07T10:20:03.902Z,1001.40
2019-06-07T10:21:03.784Z,1001.38
2019-06-07T10:22:03.326Z,1001.33
2019-06-07T10:23:03.678Z,1001.37
2019-06-07T10:24:03.479Z,1001.32
2019-06-07T10:25:04.262Z,1001.34
2019-06-07T10:26:03.936Z,1001.33
2019-06-07T10:27:03.896Z,1001.30
2019-06-07T10:28:03.714Z,1001.32
2019-06-07T10:29:04.903Z,1001.29
2019-06-07T10:30:03.969Z,1001.27
2019-06-07T10:31:02.484Z,1001.28
2019-06-07T10:32:02.642Z,1001.22
2019-06-07T10:33:02.493Z,1001.20
2019-06-07T10:34:02.550Z,1001.24
2019-06-07T10:35:03.268Z,1001.16
2019-06-07T10:36:02.549Z,1001.18
2019-06-07T10:37:03.279Z,1001.20
2019-06-07T10:38:02.561Z,1001.21
2019-06-07T10:39:02.903Z,1001.21
2019-06-07T10:40:02.933Z,1001.16
2019-06-07T10:41:02.883Z,1001.20
2019-06-07T10:42:04.046Z,1001.15
2019-06-07T10:43:02.990Z,1001.18
2019-06-07T10:44:03.325Z,1001.19
2019-06-07T10:45:04.438Z,1001.13
2019-06-07T10:46:03.630Z,1001.07
2019-06-07T10:47:03.873Z,1001.10
2019-06-07T10:48:03.595Z,1001.09
2019-06-07T10:49:03.695Z,1001.07
2019-06-07T10:50:03.766Z,1001.08
2019-06-07T10:51:02.512Z,1001.05
2019-06-07T10:52:04.812Z,1001.00
2019-06-07T10:53:02.495Z,1001.08
2019-06-07T10:54:11.110Z,1000.98
2019-06-07T10:55:02.598Z,1000.96
2019-06-07T10:56:02.925Z,1000.99
2019-06-07T10:57:02.952Z,1000.91
2019-06-07T10:58:02.823Z,1000.94
2019-06-07T10:59:03.159Z,1000.93
2019-06-07T11:00:03.481Z,1000.88
2019-06-07T11:01:03.370Z,1000.84
2019-06-07T11:02:03.434Z,1000.78
2019-06-07T11:03:03.620Z,1000.86
2019-06-07T11:04:03.385Z,1000.85
2019-06-07T11:05:03.693Z,1000.84
2019-06-07T11:06:03.677Z,1000.87
2019-06-07T11:07:04.380Z,1000.85
2019-06-07T11:08:03.812Z,1000.82
2019-06-07T11:09:03.725Z,1000.83
2019-06-07T11:10:07.427Z,1000.79
2019-06-07T11:11:03.806Z,1000.76
2019-06-07T11:12:02.578Z,1000.81
2019-06-07T11:13:02.520Z,1000.77
2019-06-07T11:14:02.515Z,1000.78
2019-06-07T11:15:02.583Z,1000.76
2019-06-07T11:16:02.517Z,1000.71
2019-06-07T11:17:02.596Z,1000.67
2019-06-07T11:18:02.585Z,1000.63
2019-06-07T11:19:02.560Z,1000.61
2019-06-07T11:20:02.597Z,1000.62
2019-06-07T11:21:02.592Z,1000.62
2019-06-07T11:22:02.591Z,1000.55
2019-06-07T11:23:02.590Z,1000.60
2019-06-07T11:24:02.574Z,1000.59
2019-06-07T11:25:02.997Z,1000.61
2019-06-07T11:26:02.582Z,1000.55
2019-06-07T11:27:02.571Z,1000.56
2019-06-07T11:28:02.514Z,1000.50
2019-06-07T11:29:02.578Z,1000.43
2019-06-07T11:30:02.508Z,1000.42
2019-06-07T11:31:02.494Z,1000.38
2019-06-07T11:32:02.586Z,1000.39
2019-06-07T11:33:02.550Z,1000.46
2019-06-07T11:34:02.558Z,1000.45
2019-06-07T11:35:02.514Z,1000.34
2019-06-07T11:36:02.500Z,1000.41
2019-06-07T11:37:02.545Z,1000.40
2019-06-07T11:38:02.538Z,1000.41
2019-06-07T11:39:02.497Z,1000.42
2019-06-07T11:40:02.499Z,1000.41
2019-06-07T11:41:02.593Z,1000.43
2019-06-07T11:42:02.528Z,1000.37
2019-06-07T11:43:02.467Z,1000.37
2019-06-07T11:44:02.520Z,1000.41
2019-06-07T11:45:02.525Z,1000.40
2019-06-07T11:46:02.534Z,1000.29
2019-06-07T11:47:02.589Z,1000.31
2019-06-07T11:48:02.549Z,1000.30
2019-06-07T11:49:02.523Z,1000.31
2019-06-07T11:50:02.599Z,1000.31
2019-06-07T11:51:02.593Z,1000.27
2019-06-07T11:52:02.527Z,1000.28
2019-06-07T11:53:02.519Z,1000.23
2019-06-07T11:54:02.594Z,1000.22
2019-06-07T11:55:02.553Z,1000.22
2019-06-07T11:56:02.604Z,1000.25
2019-06-07T11:57:02.508Z,1000.24
2019-06-07T11:58:02.492Z,1000.25
2019-06-07T11:59:02.487Z,1000.16
2019-06-07T12:00:02.606Z,1000.18
2019-06-07T12:01:02.549Z,1000.19
2019-06-07T12:02:02.545Z,1000.16
2019-06-07T12:03:02.495Z,1000.14
2019-06-07T12:04:02.607Z,1000.16
2019-06-07T12:05:02.603Z,1000.12
2019-06-07T12:06:02.518Z,1000.08
2019-06-07T12:07:02.700Z,1000.05
2019-06-07T12:08:02.482Z,1000.07
2019-06-07T12:09:02.544Z,1000.03
2019-06-07T12:10:02.539Z,1000.03
2019-06-07T12:11:02.609Z,1000.03
2019-06-07T12:12:02.491Z,1000.04
2019-06-07T12:13:02.516Z,1000.05